Diamondway — D5JC7 — position and weather

sailwx.info

Track history (hours):
 
Tides and Currents Weather Stations Pressure Air Temp Water Temp Dewpoint Dewpoint Depression Visibility Wind Speed Wind Dir Waves Ship Positions

Diamondway

Last reported at 2018-Jun-17 20:08 UTC. Time now 2018-Jun-17 23:53 UTC.
Position N 32°31' W 119°56'.

Length 277 m; draft 9.7 m.

Type: Tanker. MMSI: 636017061.

Date/timePositionNaut miles runAvg speedWind from/ knotsBaromVisibWave heightAir tempDewpointWater temp
2018-Jun-17 20:08N 32°31' W 119°56'2210.3
2018-Jun-17 18:01N 32°25' W 120°21'011.4
2018-Jun-17 18:00N 32°25' W 120°21'510.8
2018-Jun-17 17:30N 32°23' W 120°27'711.0
2018-Jun-17 16:50N 32°21' W 120°35'510.4
2018-Jun-17 16:22N 32°20' W 120°41'1110.3
2018-Jun-17 15:20N 32°18' W 120°53'310.4
2018-Jun-17 15:00N 32°17' W 120°57'610.0
2018-Jun-17 14:27N 32°16' W 121°04'4 9.8
2018-Jun-17 14:00N 32°16' W 121°09'59 8.8
2018-Jun-17 07:13N 32°47' W 122°09'410.8
2018-Jun-17 06:51N 32°50' W 122°12'410.7
2018-Jun-17 06:30N 32°53' W 122°14'1110.6
2018-Jun-17 05:29N 33°02' W 122°21'510.7
2018-Jun-17 05:00N 33°07' W 122°24'510.9
2018-Jun-17 04:30N 33°11' W 122°27'711.1
2018-Jun-17 03:54N 33°17' W 122°32'611.2
2018-Jun-17 03:21N 33°22' W 122°35'411.0
2018-Jun-17 03:00N 33°25' W 122°38'611.1
2018-Jun-17 02:28N 33°31' W 122°41'511.2
2018-Jun-17 01:59N 33°35' W 122°44'510.8
2018-Jun-17 01:30N 33°40' W 122°47'610.8
2018-Jun-17 01:00N 33°45' W 122°50'510.8
2018-Jun-17 00:30N 33°50' W 122°52'510.8
2018-Jun-17 00:00N 33°55' W 122°55'610.9
2018-Jun-16 23:30N 33°60' W 122°58'610.9
2018-Jun-16 22:57N 34°05' W 123°02'510.9
2018-Jun-16 22:27N 34°10' W 123°05'510.7
2018-Jun-16 22:00N 34°14' W 123°07'510.9
2018-Jun-16 21:29N 34°19' W 123°10'510.7
2018-Jun-16 21:00N 34°24' W 123°13'611.0
2018-Jun-16 20:30N 34°29' W 123°16'611.1
2018-Jun-16 19:59N 34°34' W 123°20'710.9
2018-Jun-16 19:20N 34°40' W 123°23'610.8
2018-Jun-16 18:47N 34°45' W 123°26'310.9
2018-Jun-16 18:30N 34°48' W 123°28'610.9
2018-Jun-16 17:58N 34°53' W 123°31'510.8
2018-Jun-16 17:30N 34°58' W 123°34'611.0
2018-Jun-16 17:00N 35°03' W 123°37'611.2
2018-Jun-16 16:27N 35°08' W 123°40'711.2
2018-Jun-16 15:51N 35°15' W 123°38'1511.1
2018-Jun-16 14:28N 35°30' W 123°35'1111.5
2018-Jun-16 13:31N 35°41' W 123°32'311.8
2018-Jun-16 13:17N 35°43' W 123°32'1511.7
2018-Jun-16 11:59N 35°58' W 123°28'611.5
2018-Jun-16 11:26N 36°05' W 123°27'2911.2
2018-Jun-16 08:49N 36°33' W 123°20'411.0
2018-Jun-16 08:29N 36°37' W 123°19'511.0
2018-Jun-16 08:00N 36°42' W 123°18'611.1
2018-Jun-16 07:30N 36°47' W 123°16'611.1
2018-Jun-16 07:00N 36°53' W 123°15'511.0
2018-Jun-16 06:31N 36°58' W 123°13'611.0
2018-Jun-16 06:00N 37°04' W 123°12'510.7
2018-Jun-16 05:30N 37°09' W 123°11'510.6
2018-Jun-16 05:00N 37°14' W 123°09'510.6
2018-Jun-16 04:30N 37°19' W 123°08'610.5
2018-Jun-16 03:54N 37°25' W 123°07'510.7
2018-Jun-16 03:28N 37°30' W 123°06'510.2
2018-Jun-16 03:00N 37°35' W 123°04'5 9.8
2018-Jun-16 02:29N 37°37' W 122°58'510.1
2018-Jun-16 02:00N 37°40' W 122°53'510.2
2018-Jun-16 01:30N 37°43' W 122°48'610.3
2018-Jun-16 00:57N 37°44' W 122°41'4 8.7
2018-Jun-16 00:30N 37°46' W 122°37'713.6
2018-Jun-16 00:00N 37°49' W 122°29'5 9.6
2018-Jun-15 23:31N 37°49' W 122°23'4 6.7
2018-Jun-15 22:59N 37°46' W 122°21'0 0.2
2018-Jun-15 22:29N 37°46' W 122°21'0 0.1
2018-Jun-15 21:56N 37°46' W 122°21'0 0.2
2018-Jun-15 21:29N 37°45' W 122°21'0 0.0
2018-Jun-15 20:59N 37°45' W 122°21'0 0.1
2018-Jun-15 20:29N 37°45' W 122°21'0 0.1
2018-Jun-15 19:59N 37°45' W 122°21'0 0.1
2018-Jun-15 19:29N 37°45' W 122°21'0 0.1
2018-Jun-15 18:59N 37°45' W 122°21'0 0.0
2018-Jun-15 18:29N 37°45' W 122°21'0 0.0
2018-Jun-15 17:59N 37°45' W 122°21'0 0.1
2018-Jun-15 17:29N 37°45' W 122°21'0 0.3
2018-Jun-15 16:56N 37°45' W 122°21'0 0.5
2018-Jun-15 16:26N 37°46' W 122°21'0 0.1
2018-Jun-15 15:59N 37°46' W 122°21'0 0.0
2018-Jun-15 15:29N 37°46' W 122°21'0 0.0
2018-Jun-15 14:59N 37°46' W 122°21'0 0.0
2018-Jun-15 14:29N 37°46' W 122°21'0 0.0
2018-Jun-15 13:59N 37°46' W 122°21'0 0.0
2018-Jun-15 13:29N 37°46' W 122°21'0 0.0
2018-Jun-15 12:59N 37°46' W 122°21'0 0.0
2018-Jun-15 12:29N 37°46' W 122°21'0 0.0
2018-Jun-15 11:59N 37°46' W 122°21'0 0.0
2018-Jun-15 11:29N 37°46' W 122°21'0 0.0
2018-Jun-15 10:59N 37°46' W 122°21'0 0.1
2018-Jun-15 10:29N 37°46' W 122°21'0 0.0
2018-Jun-15 09:59N 37°46' W 122°21'0 0.0
2018-Jun-15 09:29N 37°46' W 122°21'0 0.5
2018-Jun-15 08:59N 37°45' W 122°21'0 0.2
2018-Jun-15 08:29N 37°45' W 122°21'0 0.0
2018-Jun-15 07:59N 37°45' W 122°21'0 0.1
2018-Jun-15 07:29N 37°45' W 122°21'0 0.2
2018-Jun-15 07:00N 37°45' W 122°21'2 3.2
2018-Jun-15 06:30N 37°47' W 122°22'612.8
2018-Jun-15 06:00N 37°52' W 122°25'510.6
2018-Jun-15 05:30N 37°58' W 122°27'510.8
2018-Jun-15 05:00N 38°02' W 122°22'5 9.2
2018-Jun-15 04:31N 38°04' W 122°17'611.9
2018-Jun-15 04:01N 38°02' W 122°10'2 0.0
2018-Jun-13 11:33N 38°02' W 122°08'0 0.0
2018-Jun-13 07:48N 38°02' W 122°08'0 0.5
2018-Jun-13 07:29N 38°02' W 122°08'2 4.4
2018-Jun-13 06:56N 38°03' W 122°11'510.6
2018-Jun-13 06:30N 38°04' W 122°17'4 9.0
2018-Jun-13 06:00N 38°02' W 122°22'510.6
2018-Jun-13 05:30N 37°58' W 122°27'510.8
2018-Jun-13 05:00N 37°53' W 122°26'511.0
2018-Jun-13 04:30N 37°48' W 122°23'5 9.3
2018-Jun-13 04:01N 37°44' W 122°21'1 1.4
2018-Jun-13 03:30N 37°43' W 122°20'0 0.0
2018-Jun-13 03:00N 37°43' W 122°20'0 0.0
2018-Jun-13 02:30N 37°43' W 122°20'0 0.1
2018-Jun-13 02:00N 37°43' W 122°20'0 0.1
2018-Jun-13 01:30N 37°43' W 122°20'0 0.2
2018-Jun-13 01:00N 37°43' W 122°20'0 0.3
2018-Jun-13 00:30N 37°43' W 122°20'0 0.1
2018-Jun-13 00:00N 37°43' W 122°20'0 0.0
2018-Jun-12 23:24N 37°43' W 122°20'0 0.0
2018-Jun-12 23:00N 37°43' W 122°20'0 0.0
2018-Jun-12 22:30N 37°43' W 122°20'0 0.0
2018-Jun-12 22:00N 37°43' W 122°20'0 0.0
2018-Jun-12 21:30N 37°43' W 122°20'0 0.2
2018-Jun-12 21:00N 37°43' W 122°20'0 0.1
2018-Jun-12 20:30N 37°43' W 122°20'0 0.2
2018-Jun-12 20:00N 37°43' W 122°20'0 0.1
2018-Jun-12 19:30N 37°43' W 122°20'0 0.0
2018-Jun-12 19:00N 37°43' W 122°20'0 0.1
2018-Jun-12 18:30N 37°43' W 122°20'0 0.0
2018-Jun-12 18:00N 37°43' W 122°20'0 0.0
2018-Jun-12 17:30N 37°43' W 122°20'0 0.0
2018-Jun-12 17:01N 37°43' W 122°20'0 0.0
2018-Jun-12 16:30N 37°43' W 122°20'0 0.0
2018-Jun-12 16:00N 37°43' W 122°20'0 0.0
2018-Jun-12 15:30N 37°43' W 122°20'0 0.0
2018-Jun-12 15:00N 37°43' W 122°20'0 0.0
2018-Jun-12 14:30N 37°43' W 122°20'0 0.3
2018-Jun-12 13:57N 37°43' W 122°20'0 0.3
2018-Jun-12 13:30N 37°43' W 122°20'0 0.0
2018-Jun-12 13:00N 37°43' W 122°20'0 0.1
2018-Jun-12 12:30N 37°43' W 122°21'0 0.0
2018-Jun-12 12:00N 37°43' W 122°21'0 0.0
2018-Jun-12 11:30N 37°43' W 122°21'0 0.0
2018-Jun-12 11:00N 37°43' W 122°21'0 0.0
2018-Jun-12 10:30N 37°43' W 122°21'0 0.0
2018-Jun-12 10:00N 37°43' W 122°21'0 0.0
2018-Jun-12 09:30N 37°43' W 122°21'0 0.0
2018-Jun-12 09:00N 37°43' W 122°21'0 0.0
2018-Jun-12 08:30N 37°43' W 122°21'0 0.0
2018-Jun-12 08:00N 37°43' W 122°21'0 0.1
2018-Jun-12 07:30N 37°43' W 122°20'0 0.1
2018-Jun-12 07:00N 37°43' W 122°20'0 0.4
2018-Jun-12 06:30N 37°43' W 122°20'0 0.1
2018-Jun-12 06:00N 37°43' W 122°20'0 0.1
2018-Jun-12 05:30N 37°43' W 122°20'0 0.0
2018-Jun-12 05:00N 37°43' W 122°20'0 0.0
2018-Jun-12 04:30N 37°43' W 122°20'0 0.0
2018-Jun-12 04:00N 37°43' W 122°20'0 0.0
2018-Jun-12 03:27N 37°43' W 122°20'0 0.0
2018-Jun-12 03:00N 37°43' W 122°20'0 0.0
2018-Jun-12 02:30N 37°43' W 122°20'0 0.0
2018-Jun-12 02:00N 37°43' W 122°20'0 0.0
2018-Jun-12 01:30N 37°43' W 122°20'0 0.1
2018-Jun-12 01:00N 37°43' W 122°20'0 0.1
2018-Jun-12 00:30N 37°43' W 122°20'0 0.1
2018-Jun-12 00:00N 37°43' W 122°20'0 0.3
2018-Jun-11 23:30N 37°43' W 122°20'0 0.1
2018-Jun-11 23:00N 37°43' W 122°20'0 0.0
2018-Jun-11 22:30N 37°43' W 122°20'0 0.0
2018-Jun-11 22:00N 37°43' W 122°20'0 0.0
2018-Jun-11 21:30N 37°43' W 122°20'0 0.0
2018-Jun-11 21:00N 37°43' W 122°20'0 0.1
2018-Jun-11 20:30N 37°43' W 122°20'0 0.1
2018-Jun-11 20:00N 37°43' W 122°20'0 0.3
2018-Jun-11 19:27N 37°43' W 122°20'0 0.1
2018-Jun-11 19:00N 37°43' W 122°20'0 0.0
2018-Jun-11 18:30N 37°43' W 122°20'0 0.0
2018-Jun-11 18:00N 37°43' W 122°20'0 0.0
2018-Jun-11 17:30N 37°43' W 122°20'0 0.0
2018-Jun-11 17:00N 37°43' W 122°20'0 0.0
2018-Jun-11 16:30N 37°43' W 122°20'0 0.0
2018-Jun-11 16:00N 37°43' W 122°20'0 0.0
2018-Jun-11 15:30N 37°43' W 122°20'0 0.1
2018-Jun-11 15:00N 37°43' W 122°20'0 0.0
2018-Jun-11 14:30N 37°43' W 122°20'0 0.0
2018-Jun-11 14:00N 37°43' W 122°20'0 0.1
2018-Jun-11 13:30N 37°43' W 122°20'0 0.3
2018-Jun-11 13:00N 37°43' W 122°20'0 0.3
2018-Jun-11 12:30N 37°43' W 122°20'0 0.1
2018-Jun-11 12:00N 37°43' W 122°21'0 0.0
2018-Jun-11 11:30N 37°43' W 122°21'0 0.0
2018-Jun-11 11:00N 37°43' W 122°21'0 0.0
2018-Jun-11 10:30N 37°43' W 122°21'0 0.0
2018-Jun-11 10:00N 37°43' W 122°21'0 0.0
2018-Jun-11 09:30N 37°43' W 122°21'0 0.0
2018-Jun-11 09:00N 37°43' W 122°21'0 0.0
2018-Jun-11 08:30N 37°43' W 122°21'0 0.0
2018-Jun-11 08:00N 37°43' W 122°21'0 0.1
2018-Jun-11 07:30N 37°43' W 122°20'0 0.0
2018-Jun-11 07:00N 37°43' W 122°20'0 0.2
2018-Jun-11 06:30N 37°43' W 122°20'0 0.2
2018-Jun-11 06:00N 37°43' W 122°20'0 0.1
2018-Jun-11 05:30N 37°43' W 122°20'0 0.1
2018-Jun-11 05:00N 37°43' W 122°20'0 0.0
2018-Jun-11 04:30N 37°43' W 122°20'0 0.0
2018-Jun-11 04:00N 37°43' W 122°20'0 0.1
2018-Jun-11 03:30N 37°43' W 122°20'0 0.0
2018-Jun-11 03:00N 37°43' W 122°20'0 0.0
2018-Jun-11 02:30N 37°43' W 122°20'0 0.1
2018-Jun-11 02:00N 37°43' W 122°20'0 0.0
2018-Jun-11 01:30N 37°43' W 122°20'0 0.0
2018-Jun-11 01:00N 37°43' W 122°20'0 0.0
2018-Jun-11 00:30N 37°43' W 122°20'0 0.1
2018-Jun-11 00:00N 37°43' W 122°20'0 0.1
2018-Jun-10 23:30N 37°43' W 122°20'0 0.2
2018-Jun-10 23:00N 37°43' W 122°20'0 0.2
2018-Jun-10 22:30N 37°43' W 122°20'0 0.1
2018-Jun-10 22:00N 37°43' W 122°20'0 0.1
2018-Jun-10 21:27N 37°43' W 122°20'0 0.0
2018-Jun-10 21:00N 37°43' W 122°20'0 0.0
2018-Jun-10 20:30N 37°43' W 122°20'0 0.0
2018-Jun-10 20:00N 37°43' W 122°20'0 0.1
2018-Jun-10 19:30N 37°43' W 122°20'0 0.0
2018-Jun-10 19:00N 37°43' W 122°20'0 0.2
2018-Jun-10 18:30N 37°43' W 122°20'0 0.3
2018-Jun-10 18:00N 37°43' W 122°20'0 0.1
2018-Jun-10 17:30N 37°43' W 122°20'0 0.0
2018-Jun-10 17:00N 37°43' W 122°20'0 0.0
2018-Jun-10 16:30N 37°43' W 122°20'0 0.0
2018-Jun-10 16:00N 37°43' W 122°20'0 0.0
2018-Jun-10 15:30N 37°43' W 122°20'0 0.0
2018-Jun-10 15:00N 37°43' W 122°20'0 0.0
2018-Jun-10 14:30N 37°43' W 122°20'0 0.0
2018-Jun-10 13:30N 37°43' W 122°20'0 0.0
2018-Jun-10 13:00N 37°43' W 122°20'0 0.1
2018-Jun-10 12:30N 37°43' W 122°20'0 0.4
2018-Jun-10 12:00N 37°43' W 122°20'0 0.2
2018-Jun-10 11:30N 37°43' W 122°20'0 0.0
2018-Jun-10 11:00N 37°43' W 122°20'0 0.1
2018-Jun-10 10:30N 37°43' W 122°21'0 0.0
2018-Jun-10 10:00N 37°43' W 122°21'0 0.0
2018-Jun-10 09:30N 37°43' W 122°21'0 0.0
2018-Jun-10 09:00N 37°43' W 122°21'0 0.0
2018-Jun-10 08:30N 37°43' W 122°21'0 0.0
2018-Jun-10 08:00N 37°43' W 122°21'0 0.0
2018-Jun-10 07:30N 37°43' W 122°21'0 0.1
2018-Jun-10 07:00N 37°43' W 122°20'0 0.0
2018-Jun-10 06:30N 37°43' W 122°20'0 0.0
2018-Jun-10 06:00N 37°43' W 122°20'0 0.4
2018-Jun-10 05:30N 37°43' W 122°20'0 0.2
2018-Jun-10 05:00N 37°43' W 122°20'0 0.1
2018-Jun-10 04:30N 37°43' W 122°20'0 0.0
2018-Jun-10 04:00N 37°43' W 122°20'0 0.0
2018-Jun-10 03:30N 37°43' W 122°20'0 0.0
2018-Jun-10 03:00N 37°43' W 122°20'0 0.0
2018-Jun-10 02:30N 37°43' W 122°20'0 0.0
2018-Jun-10 01:57N 37°43' W 122°20'0 0.0
2018-Jun-10 01:30N 37°43' W 122°20'0 0.0
2018-Jun-10 01:00N 37°43' W 122°20'0 0.0
2018-Jun-10 00:30N 37°43' W 122°20'0 0.0
2018-Jun-10 00:00N 37°43' W 122°20'0 0.0
2018-Jun-09 23:30N 37°43' W 122°20'0 0.1
2018-Jun-09 23:00N 37°43' W 122°20'0 0.0
2018-Jun-09 22:30N 37°43' W 122°20'0 0.2
2018-Jun-09 22:00N 37°43' W 122°20'0 0.3
2018-Jun-09 21:30N 37°43' W 122°20'0 0.1
2018-Jun-09 21:00N 37°43' W 122°20'0 0.0
2018-Jun-09 20:27N 37°43' W 122°20'0 0.0
2018-Jun-09 20:00N 37°43' W 122°20'0 0.0
2018-Jun-09 19:27N 37°43' W 122°20'0 0.0
2018-Jun-09 19:00N 37°43' W 122°20'0 0.1
2018-Jun-09 18:30N 37°43' W 122°20'0 0.1
2018-Jun-09 18:00N 37°43' W 122°20'0 0.2
2018-Jun-09 17:30N 37°43' W 122°20'0 0.1
2018-Jun-09 17:00N 37°43' W 122°20'0 0.0
2018-Jun-09 16:30N 37°43' W 122°20'0 0.1
2018-Jun-09 16:00N 37°43' W 122°20'0 0.1
2018-Jun-09 15:00N 37°43' W 122°20'0 0.0
2018-Jun-09 14:30N 37°43' W 122°20'0 0.1
2018-Jun-09 14:00N 37°43' W 122°20'0 0.1
2018-Jun-09 13:30N 37°43' W 122°20'0 0.1
2018-Jun-09 13:00N 37°43' W 122°20'0 0.1
2018-Jun-09 12:30N 37°43' W 122°20'0 0.0
2018-Jun-09 12:00N 37°43' W 122°20'0 0.1
2018-Jun-09 11:30N 37°43' W 122°20'0 0.3
2018-Jun-09 10:57N 37°43' W 122°20'0 0.2
2018-Jun-09 10:30N 37°43' W 122°20'0 0.0
2018-Jun-09 10:00N 37°43' W 122°20'0 0.0
2018-Jun-09 09:24N 37°43' W 122°20'0 0.0
2018-Jun-09 08:57N 37°43' W 122°20'0 0.0
2018-Jun-09 08:15N 37°43' W 122°20'0 0.0
2018-Jun-09 08:00N 37°43' W 122°20'0 0.1
2018-Jun-09 07:30N 37°43' W 122°20'0 0.0
2018-Jun-09 07:00N 37°43' W 122°20'0 0.1
2018-Jun-09 06:30N 37°43' W 122°20'0 0.1
2018-Jun-09 06:01N 37°43' W 122°20'0 0.0
2018-Jun-09 05:30N 37°43' W 122°20'0 0.0
2018-Jun-09 04:57N 37°43' W 122°20'0 0.2
2018-Jun-09 04:30N 37°43' W 122°20'0 0.1
2018-Jun-09 04:00N 37°43' W 122°20'0 0.1
2018-Jun-09 03:30N 37°43' W 122°20'0 0.0
2018-Jun-09 03:00N 37°43' W 122°20'0 0.0
2018-Jun-09 02:30N 37°43' W 122°20'0 0.0
2018-Jun-09 02:00N 37°43' W 122°20'0 0.0
2018-Jun-09 01:30N 37°43' W 122°20'0 0.0
2018-Jun-09 01:00N 37°43' W 122°20'0 0.0
2018-Jun-09 00:30N 37°43' W 122°20'0 0.0
2018-Jun-09 00:00N 37°43' W 122°20'0 0.0
2018-Jun-08 23:30N 37°43' W 122°20'0 0.1
2018-Jun-08 23:00N 37°43' W 122°20'0 0.1
2018-Jun-08 22:30N 37°43' W 122°20'0 0.1
2018-Jun-08 22:00N 37°43' W 122°20'0 0.0
2018-Jun-08 21:30N 37°43' W 122°20'0 0.2
2018-Jun-08 20:54N 37°43' W 122°20'0 0.2
2018-Jun-08 20:30N 37°43' W 122°20'0 0.1
2018-Jun-08 19:57N 37°43' W 122°20'0 0.0
2018-Jun-08 19:31N 37°43' W 122°20'0 0.1
2018-Jun-08 19:00N 37°43' W 122°21'0 0.0
2018-Jun-08 18:30N 37°43' W 122°21'0 0.0
2018-Jun-08 18:00N 37°43' W 122°21'0 0.1
2018-Jun-08 17:30N 37°43' W 122°21'0 0.1
2018-Jun-08 16:45N 37°43' W 122°21'0 0.2
2018-Jun-08 16:30N 37°43' W 122°20'0 0.4
2018-Jun-08 16:00N 37°43' W 122°20'0 0.1
2018-Jun-08 15:30N 37°43' W 122°20'0 0.0
2018-Jun-08 15:00N 37°43' W 122°20'0 0.0
2018-Jun-08 14:30N 37°43' W 122°20'0 0.0
2018-Jun-08 14:00N 37°43' W 122°20'0 0.0
2018-Jun-08 13:30N 37°43' W 122°20'0 0.0
2018-Jun-08 13:00N 37°43' W 122°20'0 0.0
2018-Jun-08 12:30N 37°43' W 122°20'0 0.0
2018-Jun-08 12:01N 37°43' W 122°20'0 0.0
2018-Jun-08 11:30N 37°43' W 122°20'0 0.0
2018-Jun-08 11:00N 37°43' W 122°20'0 0.1
2018-Jun-08 10:30N 37°43' W 122°20'0 0.1
2018-Jun-08 09:57N 37°43' W 122°20'0 0.2
2018-Jun-08 09:25N 37°43' W 122°20'0 0.2
2018-Jun-08 09:00N 37°43' W 122°20'0 0.0
2018-Jun-08 08:30N 37°43' W 122°20'0 0.1
2018-Jun-08 08:00N 37°43' W 122°21'0 0.0
2018-Jun-08 07:30N 37°43' W 122°21'0 0.0
2018-Jun-08 07:00N 37°43' W 122°21'0 0.0
2018-Jun-08 06:30N 37°43' W 122°21'0 0.1
2018-Jun-08 06:00N 37°43' W 122°20'0 0.1
2018-Jun-08 05:27N 37°43' W 122°20'0 0.2
2018-Jun-08 05:00N 37°43' W 122°20'0 0.2
2018-Jun-08 04:30N 37°43' W 122°20'0 0.1
2018-Jun-08 04:00N 37°43' W 122°20'0 0.0
2018-Jun-08 03:30N 37°43' W 122°20'0 0.0
2018-Jun-08 03:00N 37°43' W 122°20'0 0.0
2018-Jun-08 02:30N 37°43' W 122°20'0 0.0
2018-Jun-08 02:00N 37°43' W 122°20'0 0.0
2018-Jun-08 01:30N 37°43' W 122°20'0 0.0
2018-Jun-08 01:00N 37°43' W 122°20'0 0.1
2018-Jun-08 00:30N 37°43' W 122°20'0 0.1
2018-Jun-08 00:00N 37°43' W 122°20'0 0.0
2018-Jun-07 23:30N 37°43' W 122°20'0 0.0
2018-Jun-07 23:00N 37°43' W 122°20'0 0.0
2018-Jun-07 22:30N 37°43' W 122°20'0 0.1
2018-Jun-07 22:00N 37°43' W 122°20'0 0.1
2018-Jun-07 21:30N 37°43' W 122°20'0 0.0
2018-Jun-07 21:00N 37°43' W 122°20'0 0.1
2018-Jun-07 20:30N 37°43' W 122°20'  
Track history (hours):
 
Tides and Currents Weather Stations Pressure Air Temp Water Temp Dewpoint Dewpoint Depression Visibility Wind Speed Wind Dir Waves Ship Positions

Diamondway

Last reported at 2018-Jun-17 20:08 UTC. Time now 2018-Jun-17 23:53 UTC.
Position N 32°31' W 119°56'.

Length 277 m; draft 9.7 m.

Type: Tanker. MMSI: 636017061.

Date/timePositionNaut miles runAvg speedWind from/ knotsBaromVisibWave heightAir tempDewpointWater temp
2018-Jun-17 20:08N 32°31' W 119°56'2210.3
2018-Jun-17 18:01N 32°25' W 120°21'011.4
2018-Jun-17 18:00N 32°25' W 120°21'510.8
2018-Jun-17 17:30N 32°23' W 120°27'711.0
2018-Jun-17 16:50N 32°21' W 120°35'510.4
2018-Jun-17 16:22N 32°20' W 120°41'1110.3
2018-Jun-17 15:20N 32°18' W 120°53'310.4
2018-Jun-17 15:00N 32°17' W 120°57'610.0
2018-Jun-17 14:27N 32°16' W 121°04'4 9.8
2018-Jun-17 14:00N 32°16' W 121°09'59 8.8
2018-Jun-17 07:13N 32°47' W 122°09'410.8
2018-Jun-17 06:51N 32°50' W 122°12'410.7
2018-Jun-17 06:30N 32°53' W 122°14'1110.6
2018-Jun-17 05:29N 33°02' W 122°21'510.7
2018-Jun-17 05:00N 33°07' W 122°24'510.9
2018-Jun-17 04:30N 33°11' W 122°27'711.1
2018-Jun-17 03:54N 33°17' W 122°32'611.2
2018-Jun-17 03:21N 33°22' W 122°35'411.0
2018-Jun-17 03:00N 33°25' W 122°38'611.1
2018-Jun-17 02:28N 33°31' W 122°41'511.2
2018-Jun-17 01:59N 33°35' W 122°44'510.8
2018-Jun-17 01:30N 33°40' W 122°47'610.8
2018-Jun-17 01:00N 33°45' W 122°50'510.8
2018-Jun-17 00:30N 33°50' W 122°52'510.8
2018-Jun-17 00:00N 33°55' W 122°55'610.9
2018-Jun-16 23:30N 33°60' W 122°58'610.9
2018-Jun-16 22:57N 34°05' W 123°02'510.9
2018-Jun-16 22:27N 34°10' W 123°05'510.7
2018-Jun-16 22:00N 34°14' W 123°07'510.9
2018-Jun-16 21:29N 34°19' W 123°10'510.7
2018-Jun-16 21:00N 34°24' W 123°13'611.0
2018-Jun-16 20:30N 34°29' W 123°16'611.1
2018-Jun-16 19:59N 34°34' W 123°20'710.9
2018-Jun-16 19:20N 34°40' W 123°23'610.8
2018-Jun-16 18:47N 34°45' W 123°26'310.9
2018-Jun-16 18:30N 34°48' W 123°28'610.9
2018-Jun-16 17:58N 34°53' W 123°31'510.8
2018-Jun-16 17:30N 34°58' W 123°34'611.0
2018-Jun-16 17:00N 35°03' W 123°37'611.2
2018-Jun-16 16:27N 35°08' W 123°40'711.2
2018-Jun-16 15:51N 35°15' W 123°38'1511.1
2018-Jun-16 14:28N 35°30' W 123°35'1111.5
2018-Jun-16 13:31N 35°41' W 123°32'311.8
2018-Jun-16 13:17N 35°43' W 123°32'1511.7
2018-Jun-16 11:59N 35°58' W 123°28'611.5
2018-Jun-16 11:26N 36°05' W 123°27'2911.2
2018-Jun-16 08:49N 36°33' W 123°20'411.0
2018-Jun-16 08:29N 36°37' W 123°19'511.0
2018-Jun-16 08:00N 36°42' W 123°18'611.1
2018-Jun-16 07:30N 36°47' W 123°16'611.1
2018-Jun-16 07:00N 36°53' W 123°15'511.0
2018-Jun-16 06:31N 36°58' W 123°13'611.0
2018-Jun-16 06:00N 37°04' W 123°12'510.7
2018-Jun-16 05:30N 37°09' W 123°11'510.6
2018-Jun-16 05:00N 37°14' W 123°09'510.6
2018-Jun-16 04:30N 37°19' W 123°08'610.5
2018-Jun-16 03:54N 37°25' W 123°07'510.7
2018-Jun-16 03:28N 37°30' W 123°06'510.2
2018-Jun-16 03:00N 37°35' W 123°04'5 9.8
2018-Jun-16 02:29N 37°37' W 122°58'510.1
2018-Jun-16 02:00N 37°40' W 122°53'510.2
2018-Jun-16 01:30N 37°43' W 122°48'610.3
2018-Jun-16 00:57N 37°44' W 122°41'4 8.7
2018-Jun-16 00:30N 37°46' W 122°37'713.6
2018-Jun-16 00:00N 37°49' W 122°29'5 9.6
2018-Jun-15 23:31N 37°49' W 122°23'4 6.7
2018-Jun-15 22:59N 37°46' W 122°21'0 0.2
2018-Jun-15 22:29N 37°46' W 122°21'0 0.1
2018-Jun-15 21:56N 37°46' W 122°21'0 0.2
2018-Jun-15 21:29N 37°45' W 122°21'0 0.0
2018-Jun-15 20:59N 37°45' W 122°21'0 0.1
2018-Jun-15 20:29N 37°45' W 122°21'0 0.1
2018-Jun-15 19:59N 37°45' W 122°21'0 0.1
2018-Jun-15 19:29N 37°45' W 122°21'0 0.1
2018-Jun-15 18:59N 37°45' W 122°21'0 0.0
2018-Jun-15 18:29N 37°45' W 122°21'0 0.0
2018-Jun-15 17:59N 37°45' W 122°21'0 0.1
2018-Jun-15 17:29N 37°45' W 122°21'0 0.3
2018-Jun-15 16:56N 37°45' W 122°21'0 0.5
2018-Jun-15 16:26N 37°46' W 122°21'0 0.1
2018-Jun-15 15:59N 37°46' W 122°21'0 0.0
2018-Jun-15 15:29N 37°46' W 122°21'0 0.0
2018-Jun-15 14:59N 37°46' W 122°21'0 0.0
2018-Jun-15 14:29N 37°46' W 122°21'0 0.0
2018-Jun-15 13:59N 37°46' W 122°21'0 0.0
2018-Jun-15 13:29N 37°46' W 122°21'0 0.0
2018-Jun-15 12:59N 37°46' W 122°21'0 0.0
2018-Jun-15 12:29N 37°46' W 122°21'0 0.0
2018-Jun-15 11:59N 37°46' W 122°21'0 0.0
2018-Jun-15 11:29N 37°46' W 122°21'0 0.0
2018-Jun-15 10:59N 37°46' W 122°21'0 0.1
2018-Jun-15 10:29N 37°46' W 122°21'0 0.0
2018-Jun-15 09:59N 37°46' W 122°21'0 0.0
2018-Jun-15 09:29N 37°46' W 122°21'0 0.5
2018-Jun-15 08:59N 37°45' W 122°21'0 0.2
2018-Jun-15 08:29N 37°45' W 122°21'0 0.0
2018-Jun-15 07:59N 37°45' W 122°21'0 0.1
2018-Jun-15 07:29N 37°45' W 122°21'0 0.2
2018-Jun-15 07:00N 37°45' W 122°21'2 3.2
2018-Jun-15 06:30N 37°47' W 122°22'612.8
2018-Jun-15 06:00N 37°52' W 122°25'510.6
2018-Jun-15 05:30N 37°58' W 122°27'510.8
2018-Jun-15 05:00N 38°02' W 122°22'5 9.2
2018-Jun-15 04:31N 38°04' W 122°17'611.9
2018-Jun-15 04:01N 38°02' W 122°10'2 0.0
2018-Jun-13 11:33N 38°02' W 122°08'0 0.0
2018-Jun-13 07:48N 38°02' W 122°08'0 0.5
2018-Jun-13 07:29N 38°02' W 122°08'2 4.4
2018-Jun-13 06:56N 38°03' W 122°11'510.6
2018-Jun-13 06:30N 38°04' W 122°17'4 9.0
2018-Jun-13 06:00N 38°02' W 122°22'510.6
2018-Jun-13 05:30N 37°58' W 122°27'510.8
2018-Jun-13 05:00N 37°53' W 122°26'511.0
2018-Jun-13 04:30N 37°48' W 122°23'5 9.3
2018-Jun-13 04:01N 37°44' W 122°21'1 1.4
2018-Jun-13 03:30N 37°43' W 122°20'0 0.0
2018-Jun-13 03:00N 37°43' W 122°20'0 0.0
2018-Jun-13 02:30N 37°43' W 122°20'0 0.1
2018-Jun-13 02:00N 37°43' W 122°20'0 0.1
2018-Jun-13 01:30N 37°43' W 122°20'0 0.2
2018-Jun-13 01:00N 37°43' W 122°20'0 0.3
2018-Jun-13 00:30N 37°43' W 122°20'0 0.1
2018-Jun-13 00:00N 37°43' W 122°20'0 0.0
2018-Jun-12 23:24N 37°43' W 122°20'0 0.0
2018-Jun-12 23:00N 37°43' W 122°20'0 0.0
2018-Jun-12 22:30N 37°43' W 122°20'0 0.0
2018-Jun-12 22:00N 37°43' W 122°20'0 0.0
2018-Jun-12 21:30N 37°43' W 122°20'0 0.2
2018-Jun-12 21:00N 37°43' W 122°20'0 0.1
2018-Jun-12 20:30N 37°43' W 122°20'0 0.2
2018-Jun-12 20:00N 37°43' W 122°20'0 0.1
2018-Jun-12 19:30N 37°43' W 122°20'0 0.0
2018-Jun-12 19:00N 37°43' W 122°20'0 0.1
2018-Jun-12 18:30N 37°43' W 122°20'0 0.0
2018-Jun-12 18:00N 37°43' W 122°20'0 0.0
2018-Jun-12 17:30N 37°43' W 122°20'0 0.0
2018-Jun-12 17:01N 37°43' W 122°20'0 0.0
2018-Jun-12 16:30N 37°43' W 122°20'0 0.0
2018-Jun-12 16:00N 37°43' W 122°20'0 0.0
2018-Jun-12 15:30N 37°43' W 122°20'0 0.0
2018-Jun-12 15:00N 37°43' W 122°20'0 0.0
2018-Jun-12 14:30N 37°43' W 122°20'0 0.3
2018-Jun-12 13:57N 37°43' W 122°20'0 0.3
2018-Jun-12 13:30N 37°43' W 122°20'0 0.0
2018-Jun-12 13:00N 37°43' W 122°20'0 0.1
2018-Jun-12 12:30N 37°43' W 122°21'0 0.0
2018-Jun-12 12:00N 37°43' W 122°21'0 0.0
2018-Jun-12 11:30N 37°43' W 122°21'0 0.0
2018-Jun-12 11:00N 37°43' W 122°21'0 0.0
2018-Jun-12 10:30N 37°43' W 122°21'0 0.0
2018-Jun-12 10:00N 37°43' W 122°21'0 0.0
2018-Jun-12 09:30N 37°43' W 122°21'0 0.0
2018-Jun-12 09:00N 37°43' W 122°21'0 0.0
2018-Jun-12 08:30N 37°43' W 122°21'0 0.0
2018-Jun-12 08:00N 37°43' W 122°21'0 0.1
2018-Jun-12 07:30N 37°43' W 122°20'0 0.1
2018-Jun-12 07:00N 37°43' W 122°20'0 0.4
2018-Jun-12 06:30N 37°43' W 122°20'0 0.1
2018-Jun-12 06:00N 37°43' W 122°20'0 0.1
2018-Jun-12 05:30N 37°43' W 122°20'0 0.0
2018-Jun-12 05:00N 37°43' W 122°20'0 0.0
2018-Jun-12 04:30N 37°43' W 122°20'0 0.0
2018-Jun-12 04:00N 37°43' W 122°20'0 0.0
2018-Jun-12 03:27N 37°43' W 122°20'0 0.0
2018-Jun-12 03:00N 37°43' W 122°20'0 0.0
2018-Jun-12 02:30N 37°43' W 122°20'0 0.0
2018-Jun-12 02:00N 37°43' W 122°20'0 0.0
2018-Jun-12 01:30N 37°43' W 122°20'0 0.1
2018-Jun-12 01:00N 37°43' W 122°20'0 0.1
2018-Jun-12 00:30N 37°43' W 122°20'0 0.1
2018-Jun-12 00:00N 37°43' W 122°20'0 0.3
2018-Jun-11 23:30N 37°43' W 122°20'0 0.1
2018-Jun-11 23:00N 37°43' W 122°20'0 0.0
2018-Jun-11 22:30N 37°43' W 122°20'0 0.0
2018-Jun-11 22:00N 37°43' W 122°20'0 0.0
2018-Jun-11 21:30N 37°43' W 122°20'0 0.0
2018-Jun-11 21:00N 37°43' W 122°20'0 0.1
2018-Jun-11 20:30N 37°43' W 122°20'0 0.1
2018-Jun-11 20:00N 37°43' W 122°20'0 0.3
2018-Jun-11 19:27N 37°43' W 122°20'0 0.1
2018-Jun-11 19:00N 37°43' W 122°20'0 0.0
2018-Jun-11 18:30N 37°43' W 122°20'0 0.0
2018-Jun-11 18:00N 37°43' W 122°20'0 0.0
2018-Jun-11 17:30N 37°43' W 122°20'0 0.0
2018-Jun-11 17:00N 37°43' W 122°20'0 0.0
2018-Jun-11 16:30N 37°43' W 122°20'0 0.0
2018-Jun-11 16:00N 37°43' W 122°20'0 0.0
2018-Jun-11 15:30N 37°43' W 122°20'0 0.1
2018-Jun-11 15:00N 37°43' W 122°20'0 0.0
2018-Jun-11 14:30N 37°43' W 122°20'0 0.0
2018-Jun-11 14:00N 37°43' W 122°20'0 0.1
2018-Jun-11 13:30N 37°43' W 122°20'0 0.3
2018-Jun-11 13:00N 37°43' W 122°20'0 0.3
2018-Jun-11 12:30N 37°43' W 122°20'0 0.1
2018-Jun-11 12:00N 37°43' W 122°21'0 0.0
2018-Jun-11 11:30N 37°43' W 122°21'0 0.0
2018-Jun-11 11:00N 37°43' W 122°21'0 0.0
2018-Jun-11 10:30N 37°43' W 122°21'0 0.0
2018-Jun-11 10:00N 37°43' W 122°21'0 0.0
2018-Jun-11 09:30N 37°43' W 122°21'0 0.0
2018-Jun-11 09:00N 37°43' W 122°21'0 0.0
2018-Jun-11 08:30N 37°43' W 122°21'0 0.0
2018-Jun-11 08:00N 37°43' W 122°21'0 0.1
2018-Jun-11 07:30N 37°43' W 122°20'0 0.0
2018-Jun-11 07:00N 37°43' W 122°20'0 0.2
2018-Jun-11 06:30N 37°43' W 122°20'0 0.2
2018-Jun-11 06:00N 37°43' W 122°20'0 0.1
2018-Jun-11 05:30N 37°43' W 122°20'0 0.1
2018-Jun-11 05:00N 37°43' W 122°20'0 0.0
2018-Jun-11 04:30N 37°43' W 122°20'0 0.0
2018-Jun-11 04:00N 37°43' W 122°20'0 0.1
2018-Jun-11 03:30N 37°43' W 122°20'0 0.0
2018-Jun-11 03:00N 37°43' W 122°20'0 0.0
2018-Jun-11 02:30N 37°43' W 122°20'0 0.1
2018-Jun-11 02:00N 37°43' W 122°20'0 0.0
2018-Jun-11 01:30N 37°43' W 122°20'0 0.0
2018-Jun-11 01:00N 37°43' W 122°20'0 0.0
2018-Jun-11 00:30N 37°43' W 122°20'0 0.1
2018-Jun-11 00:00N 37°43' W 122°20'0 0.1
2018-Jun-10 23:30N 37°43' W 122°20'0 0.2
2018-Jun-10 23:00N 37°43' W 122°20'0 0.2
2018-Jun-10 22:30N 37°43' W 122°20'0 0.1
2018-Jun-10 22:00N 37°43' W 122°20'0 0.1
2018-Jun-10 21:27N 37°43' W 122°20'0 0.0
2018-Jun-10 21:00N 37°43' W 122°20'0 0.0
2018-Jun-10 20:30N 37°43' W 122°20'0 0.0
2018-Jun-10 20:00N 37°43' W 122°20'0 0.1
2018-Jun-10 19:30N 37°43' W 122°20'0 0.0
2018-Jun-10 19:00N 37°43' W 122°20'0 0.2
2018-Jun-10 18:30N 37°43' W 122°20'0 0.3
2018-Jun-10 18:00N 37°43' W 122°20'0 0.1
2018-Jun-10 17:30N 37°43' W 122°20'0 0.0
2018-Jun-10 17:00N 37°43' W 122°20'0 0.0
2018-Jun-10 16:30N 37°43' W 122°20'0 0.0
2018-Jun-10 16:00N 37°43' W 122°20'0 0.0
2018-Jun-10 15:30N 37°43' W 122°20'0 0.0
2018-Jun-10 15:00N 37°43' W 122°20'0 0.0
2018-Jun-10 14:30N 37°43' W 122°20'0 0.0
2018-Jun-10 13:30N 37°43' W 122°20'0 0.0
2018-Jun-10 13:00N 37°43' W 122°20'0 0.1
2018-Jun-10 12:30N 37°43' W 122°20'0 0.4
2018-Jun-10 12:00N 37°43' W 122°20'0 0.2
2018-Jun-10 11:30N 37°43' W 122°20'0 0.0
2018-Jun-10 11:00N 37°43' W 122°20'0 0.1
2018-Jun-10 10:30N 37°43' W 122°21'0 0.0
2018-Jun-10 10:00N 37°43' W 122°21'0 0.0
2018-Jun-10 09:30N 37°43' W 122°21'0 0.0
2018-Jun-10 09:00N 37°43' W 122°21'0 0.0
2018-Jun-10 08:30N 37°43' W 122°21'0 0.0
2018-Jun-10 08:00N 37°43' W 122°21'0 0.0
2018-Jun-10 07:30N 37°43' W 122°21'0 0.1
2018-Jun-10 07:00N 37°43' W 122°20'0 0.0
2018-Jun-10 06:30N 37°43' W 122°20'0 0.0
2018-Jun-10 06:00N 37°43' W 122°20'0 0.4
2018-Jun-10 05:30N 37°43' W 122°20'0 0.2
2018-Jun-10 05:00N 37°43' W 122°20'0 0.1
2018-Jun-10 04:30N 37°43' W 122°20'0 0.0
2018-Jun-10 04:00N 37°43' W 122°20'0 0.0
2018-Jun-10 03:30N 37°43' W 122°20'0 0.0
2018-Jun-10 03:00N 37°43' W 122°20'0 0.0
2018-Jun-10 02:30N 37°43' W 122°20'0 0.0
2018-Jun-10 01:57N 37°43' W 122°20'0 0.0
2018-Jun-10 01:30N 37°43' W 122°20'0 0.0
2018-Jun-10 01:00N 37°43' W 122°20'0 0.0
2018-Jun-10 00:30N 37°43' W 122°20'0 0.0
2018-Jun-10 00:00N 37°43' W 122°20'0 0.0
2018-Jun-09 23:30N 37°43' W 122°20'0 0.1
2018-Jun-09 23:00N 37°43' W 122°20'0 0.0
2018-Jun-09 22:30N 37°43' W 122°20'0 0.2
2018-Jun-09 22:00N 37°43' W 122°20'0 0.3
2018-Jun-09 21:30N 37°43' W 122°20'0 0.1
2018-Jun-09 21:00N 37°43' W 122°20'0 0.0
2018-Jun-09 20:27N 37°43' W 122°20'0 0.0
2018-Jun-09 20:00N 37°43' W 122°20'0 0.0
2018-Jun-09 19:27N 37°43' W 122°20'0 0.0
2018-Jun-09 19:00N 37°43' W 122°20'0 0.1
2018-Jun-09 18:30N 37°43' W 122°20'0 0.1
2018-Jun-09 18:00N 37°43' W 122°20'0 0.2
2018-Jun-09 17:30N 37°43' W 122°20'0 0.1
2018-Jun-09 17:00N 37°43' W 122°20'0 0.0
2018-Jun-09 16:30N 37°43' W 122°20'0 0.1
2018-Jun-09 16:00N 37°43' W 122°20'0 0.1
2018-Jun-09 15:00N 37°43' W 122°20'0 0.0
2018-Jun-09 14:30N 37°43' W 122°20'0 0.1
2018-Jun-09 14:00N 37°43' W 122°20'0 0.1
2018-Jun-09 13:30N 37°43' W 122°20'0 0.1
2018-Jun-09 13:00N 37°43' W 122°20'0 0.1
2018-Jun-09 12:30N 37°43' W 122°20'0 0.0
2018-Jun-09 12:00N 37°43' W 122°20'0 0.1
2018-Jun-09 11:30N 37°43' W 122°20'0 0.3
2018-Jun-09 10:57N 37°43' W 122°20'0 0.2
2018-Jun-09 10:30N 37°43' W 122°20'0 0.0
2018-Jun-09 10:00N 37°43' W 122°20'0 0.0
2018-Jun-09 09:24N 37°43' W 122°20'0 0.0
2018-Jun-09 08:57N 37°43' W 122°20'0 0.0
2018-Jun-09 08:15N 37°43' W 122°20'0 0.0
2018-Jun-09 08:00N 37°43' W 122°20'0 0.1
2018-Jun-09 07:30N 37°43' W 122°20'0 0.0
2018-Jun-09 07:00N 37°43' W 122°20'0 0.1
2018-Jun-09 06:30N 37°43' W 122°20'0 0.1
2018-Jun-09 06:01N 37°43' W 122°20'0 0.0
2018-Jun-09 05:30N 37°43' W 122°20'0 0.0
2018-Jun-09 04:57N 37°43' W 122°20'0 0.2
2018-Jun-09 04:30N 37°43' W 122°20'0 0.1
2018-Jun-09 04:00N 37°43' W 122°20'0 0.1
2018-Jun-09 03:30N 37°43' W 122°20'0 0.0
2018-Jun-09 03:00N 37°43' W 122°20'0 0.0
2018-Jun-09 02:30N 37°43' W 122°20'0 0.0
2018-Jun-09 02:00N 37°43' W 122°20'0 0.0
2018-Jun-09 01:30N 37°43' W 122°20'0 0.0
2018-Jun-09 01:00N 37°43' W 122°20'0 0.0
2018-Jun-09 00:30N 37°43' W 122°20'0 0.0
2018-Jun-09 00:00N 37°43' W 122°20'0 0.0
2018-Jun-08 23:30N 37°43' W 122°20'0 0.1
2018-Jun-08 23:00N 37°43' W 122°20'0 0.1
2018-Jun-08 22:30N 37°43' W 122°20'0 0.1
2018-Jun-08 22:00N 37°43' W 122°20'0 0.0
2018-Jun-08 21:30N 37°43' W 122°20'0 0.2
2018-Jun-08 20:54N 37°43' W 122°20'0 0.2
2018-Jun-08 20:30N 37°43' W 122°20'0 0.1
2018-Jun-08 19:57N 37°43' W 122°20'0 0.0
2018-Jun-08 19:31N 37°43' W 122°20'0 0.1
2018-Jun-08 19:00N 37°43' W 122°21'0 0.0
2018-Jun-08 18:30N 37°43' W 122°21'0 0.0
2018-Jun-08 18:00N 37°43' W 122°21'0 0.1
2018-Jun-08 17:30N 37°43' W 122°21'0 0.1
2018-Jun-08 16:45N 37°43' W 122°21'0 0.2
2018-Jun-08 16:30N 37°43' W 122°20'0 0.4
2018-Jun-08 16:00N 37°43' W 122°20'0 0.1
2018-Jun-08 15:30N 37°43' W 122°20'0 0.0
2018-Jun-08 15:00N 37°43' W 122°20'0 0.0
2018-Jun-08 14:30N 37°43' W 122°20'0 0.0
2018-Jun-08 14:00N 37°43' W 122°20'0 0.0
2018-Jun-08 13:30N 37°43' W 122°20'0 0.0
2018-Jun-08 13:00N 37°43' W 122°20'0 0.0
2018-Jun-08 12:30N 37°43' W 122°20'0 0.0
2018-Jun-08 12:01N 37°43' W 122°20'0 0.0
2018-Jun-08 11:30N 37°43' W 122°20'0 0.0
2018-Jun-08 11:00N 37°43' W 122°20'0 0.1
2018-Jun-08 10:30N 37°43' W 122°20'0 0.1
2018-Jun-08 09:57N 37°43' W 122°20'0 0.2
2018-Jun-08 09:25N 37°43' W 122°20'0 0.2
2018-Jun-08 09:00N 37°43' W 122°20'0 0.0
2018-Jun-08 08:30N 37°43' W 122°20'0 0.1
2018-Jun-08 08:00N 37°43' W 122°21'0 0.0
2018-Jun-08 07:30N 37°43' W 122°21'0 0.0
2018-Jun-08 07:00N 37°43' W 122°21'0 0.0
2018-Jun-08 06:30N 37°43' W 122°21'0 0.1
2018-Jun-08 06:00N 37°43' W 122°20'0 0.1
2018-Jun-08 05:27N 37°43' W 122°20'0 0.2
2018-Jun-08 05:00N 37°43' W 122°20'0 0.2
2018-Jun-08 04:30N 37°43' W 122°20'0 0.1
2018-Jun-08 04:00N 37°43' W 122°20'0 0.0
2018-Jun-08 03:30N 37°43' W 122°20'0 0.0
2018-Jun-08 03:00N 37°43' W 122°20'0 0.0
2018-Jun-08 02:30N 37°43' W 122°20'0 0.0
2018-Jun-08 02:00N 37°43' W 122°20'0 0.0
2018-Jun-08 01:30N 37°43' W 122°20'0 0.0
2018-Jun-08 01:00N 37°43' W 122°20'0 0.1
2018-Jun-08 00:30N 37°43' W 122°20'0 0.1
2018-Jun-08 00:00N 37°43' W 122°20'0 0.0
2018-Jun-07 23:30N 37°43' W 122°20'0 0.0
2018-Jun-07 23:00N 37°43' W 122°20'0 0.0
2018-Jun-07 22:30N 37°43' W 122°20'0 0.1
2018-Jun-07 22:00N 37°43' W 122°20'0 0.1
2018-Jun-07 21:30N 37°43' W 122°20'0 0.0
2018-Jun-07 21:00N 37°43' W 122°20'0 0.1
2018-Jun-07 20:30N 37°43' W 122°20'  

Dump ship's entire track history